sensor_id;sensor_type;location;lat;lon;timestamp;pressure;altitude;pressure_sealevel;temperature;humidity
19576;BME280;41589;51.196;7.074;2023-03-26T00:02:48;98150.63;;;8.75;100.00
19576;BME280;41589;51.196;7.074;2023-03-26T00:07:49;98152.19;;;8.67;100.00
19576;BME280;41589;51.196;7.074;2023-03-26T00:12:50;98155.31;;;8.69;100.00
19576;BME280;41589;51.196;7.074;2023-03-26T00:17:51;98159.38;;;8.68;100.00
19576;BME280;41589;51.196;7.074;2023-03-26T00:22:53;98158.44;;;8.62;100.00
19576;BME280;41589;51.196;7.074;2023-03-26T00:27:54;98154.59;;;8.50;100.00
19576;BME280;41589;51.196;7.074;2023-03-26T00:32:55;98154.44;;;8.54;100.00
19576;BME280;41589;51.196;7.074;2023-03-26T00:37:55;98156.28;;;8.57;100.00
19576;BME280;41589;51.196;7.074;2023-03-26T00:42:57;98145.41;;;8.50;100.00
19576;BME280;41589;51.196;7.074;2023-03-26T00:48:01;98122.47;;;8.51;100.00
19576;BME280;41589;51.196;7.074;2023-03-26T00:53:02;98129.00;;;8.57;100.00
19576;BME280;41589;51.196;7.074;2023-03-26T00:58:02;98129.97;;;8.54;100.00
19576;BME280;41589;51.196;7.074;2023-03-26T01:03:05;98118.28;;;8.56;100.00
19576;BME280;41589;51.196;7.074;2023-03-26T01:08:27;98113.25;;;8.60;100.00
19576;BME280;41589;51.196;7.074;2023-03-26T01:13:33;98113.56;;;8.62;100.00
19576;BME280;41589;51.196;7.074;2023-03-26T01:18:36;98112.16;;;8.66;100.00
19576;BME280;41589;51.196;7.074;2023-03-26T01:23:44;98091.44;;;8.64;100.00
19576;BME280;41589;51.196;7.074;2023-03-26T01:28:55;98085.38;;;8.56;100.00
19576;BME280;41589;51.196;7.074;2023-03-26T01:34:06;98092.22;;;8.64;100.00
19576;BME280;41589;51.196;7.074;2023-03-26T01:49:28;98067.75;;;8.65;100.00
19576;BME280;41589;51.196;7.074;2023-03-26T01:54:30;98053.34;;;8.72;100.00
19576;BME280;41589;51.196;7.074;2023-03-26T02:10:19;98038.09;;;8.97;100.00
19576;BME280;41589;51.196;7.074;2023-03-26T02:15:22;98037.34;;;9.11;100.00
19576;BME280;41589;51.196;7.074;2023-03-26T02:20:23;98035.06;;;9.24;100.00
19576;BME280;41589;51.196;7.074;2023-03-26T02:25:23;98030.69;;;9.23;100.00
19576;BME280;41589;51.196;7.074;2023-03-26T02:30:25;98021.22;;;9.21;100.00
19576;BME280;41589;51.196;7.074;2023-03-26T02:35:31;98013.69;;;9.27;100.00
19576;BME280;41589;51.196;7.074;2023-03-26T02:40:37;98011.06;;;9.23;100.00
19576;BME280;41589;51.196;7.074;2023-03-26T02:45:39;97996.84;;;9.27;100.00
19576;BME280;41589;51.196;7.074;2023-03-26T02:50:41;97990.81;;;9.19;100.00
19576;BME280;41589;51.196;7.074;2023-03-26T02:56:01;97980.56;;;9.16;100.00
19576;BME280;41589;51.196;7.074;2023-03-26T03:01:11;97971.81;;;9.14;100.00
19576;BME280;41589;51.196;7.074;2023-03-26T03:06:23;97960.97;;;9.07;100.00
19576;BME280;41589;51.196;7.074;2023-03-26T03:11:29;97961.34;;;9.00;100.00
19576;BME280;41589;51.196;7.074;2023-03-26T03:16:30;97955.31;;;8.92;100.00
19576;BME280;41589;51.196;7.074;2023-03-26T03:21:37;97943.22;;;8.86;100.00
19576;BME280;41589;51.196;7.074;2023-03-26T03:26:38;97940.56;;;8.83;100.00
19576;BME280;41589;51.196;7.074;2023-03-26T03:31:51;97936.41;;;8.78;100.00
19576;BME280;41589;51.196;7.074;2023-03-26T03:37:08;97937.06;;;8.73;100.00
19576;BME280;41589;51.196;7.074;2023-03-26T03:42:18;97925.25;;;8.69;100.00
19576;BME280;41589;51.196;7.074;2023-03-26T03:47:19;97924.47;;;8.68;100.00
19576;BME280;41589;51.196;7.074;2023-03-26T03:52:21;97920.22;;;8.73;100.00
19576;BME280;41589;51.196;7.074;2023-03-26T03:57:22;97910.59;;;8.74;100.00
19576;BME280;41589;51.196;7.074;2023-03-26T04:02:32;97908.22;;;8.73;100.00
19576;BME280;41589;51.196;7.074;2023-03-26T04:07:39;97899.75;;;8.82;100.00
19576;BME280;41589;51.196;7.074;2023-03-26T04:12:39;97899.44;;;8.80;100.00
19576;BME280;41589;51.196;7.074;2023-03-26T04:17:42;97879.22;;;8.76;100.00
19576;BME280;41589;51.196;7.074;2023-03-26T04:22:48;97871.88;;;8.78;100.00
19576;BME280;41589;51.196;7.074;2023-03-26T04:27:51;97864.25;;;8.93;100.00
19576;BME280;41589;51.196;7.074;2023-03-26T04:33:15;97860.78;;;8.98;100.00
19576;BME280;41589;51.196;7.074;2023-03-26T04:38:17;97849.56;;;8.98;100.00
19576;BME280;41589;51.196;7.074;2023-03-26T04:43:21;97836.41;;;9.05;100.00
19576;BME280;41589;51.196;7.074;2023-03-26T04:48:47;97834.94;;;9.09;100.00
19576;BME280;41589;51.196;7.074;2023-03-26T04:53:55;97836.09;;;9.03;100.00
19576;BME280;41589;51.196;7.074;2023-03-26T04:59:12;97819.94;;;9.12;100.00
19576;BME280;41589;51.196;7.074;2023-03-26T05:04:14;97807.94;;;9.12;100.00
19576;BME280;41589;51.196;7.074;2023-03-26T05:09:16;97797.97;;;9.11;100.00
19576;BME280;41589;51.196;7.074;2023-03-26T05:14:44;97803.56;;;9.11;100.00
19576;BME280;41589;51.196;7.074;2023-03-26T05:19:50;97793.03;;;9.06;100.00
19576;BME280;41589;51.196;7.074;2023-03-26T05:24:58;97783.63;;;8.94;100.00
19576;BME280;41589;51.196;7.074;2023-03-26T05:30:00;97794.56;;;8.92;100.00
19576;BME280;41589;51.196;7.074;2023-03-26T05:35:02;97785.28;;;8.86;100.00
19576;BME280;41589;51.196;7.074;2023-03-26T05:40:07;97770.88;;;8.93;100.00
19576;BME280;41589;51.196;7.074;2023-03-26T05:45:19;97766.63;;;8.97;100.00
19576;BME280;41589;51.196;7.074;2023-03-26T05:50:22;97758.38;;;8.94;100.00
19576;BME280;41589;51.196;7.074;2023-03-26T05:55:24;97750.56;;;8.98;100.00
19576;BME280;41589;51.196;7.074;2023-03-26T06:01:02;97749.28;;;8.99;100.00
19576;BME280;41589;51.196;7.074;2023-03-26T06:06:27;97731.09;;;8.94;100.00
19576;BME280;41589;51.196;7.074;2023-03-26T06:11:31;97724.81;;;8.99;100.00
19576;BME280;41589;51.196;7.074;2023-03-26T06:16:32;97720.16;;;8.96;100.00
19576;BME280;41589;51.196;7.074;2023-03-26T06:21:54;97716.59;;;8.96;100.00
19576;BME280;41589;51.196;7.074;2023-03-26T06:26:58;97712.91;;;8.90;100.00
19576;BME280;41589;51.196;7.074;2023-03-26T06:32:16;97710.88;;;8.90;100.00
19576;BME280;41589;51.196;7.074;2023-03-26T06:37:27;97711.38;;;8.89;100.00
19576;BME280;41589;51.196;7.074;2023-03-26T06:42:32;97703.31;;;8.82;100.00
19576;BME280;41589;51.196;7.074;2023-03-26T06:47:47;97693.47;;;8.86;100.00
19576;BME280;41589;51.196;7.074;2023-03-26T06:52:48;97685.34;;;8.88;100.00
19576;BME280;41589;51.196;7.074;2023-03-26T06:58:05;97682.44;;;8.83;100.00
19576;BME280;41589;51.196;7.074;2023-03-26T07:03:11;97679.94;;;8.85;100.00
19576;BME280;41589;51.196;7.074;2023-03-26T07:08:30;97668.59;;;8.79;100.00
19576;BME280;41589;51.196;7.074;2023-03-26T07:13:50;97664.53;;;8.80;100.00
19576;BME280;41589;51.196;7.074;2023-03-26T07:19:09;97655.25;;;8.89;100.00
19576;BME280;41589;51.196;7.074;2023-03-26T07:24:13;97655.81;;;8.93;100.00
19576;BME280;41589;51.196;7.074;2023-03-26T07:29:42;97637.84;;;8.85;100.00
19576;BME280;41589;51.196;7.074;2023-03-26T07:35:19;97629.78;;;8.92;100.00
19576;BME280;41589;51.196;7.074;2023-03-26T07:40:53;97618.44;;;9.02;100.00
19576;BME280;41589;51.196;7.074;2023-03-26T07:46:26;97613.81;;;8.98;100.00
19576;BME280;41589;51.196;7.074;2023-03-26T07:51:47;97614.91;;;8.86;100.00
19576;BME280;41589;51.196;7.074;2023-03-26T08:03:13;97600.13;;;8.71;100.00
19576;BME280;41589;51.196;7.074;2023-03-26T08:14:26;97598.34;;;8.53;100.00
19576;BME280;41589;51.196;7.074;2023-03-26T08:19:45;97597.72;;;8.64;100.00
19576;BME280;41589;51.196;7.074;2023-03-26T08:30:20;97592.03;;;8.93;100.00
19576;BME280;41589;51.196;7.074;2023-03-26T08:35:21;97587.78;;;8.98;100.00
19576;BME280;41589;51.196;7.074;2023-03-26T08:51:57;97586.00;;;9.01;100.00
19576;BME280;41589;51.196;7.074;2023-03-26T08:57:18;97591.34;;;8.98;100.00
19576;BME280;41589;51.196;7.074;2023-03-26T09:18:34;97571.22;;;8.65;100.00
19576;BME280;41589;51.196;7.074;2023-03-26T09:24:07;97566.91;;;8.49;100.00
19576;BME280;41589;51.196;7.074;2023-03-26T09:35:12;97559.84;;;8.39;100.00
19576;BME280;41589;51.196;7.074;2023-03-26T09:40:20;97557.16;;;8.15;100.00
19576;BME280;41589;51.196;7.074;2023-03-26T09:45:50;97553.66;;;8.05;100.00
19576;BME280;41589;51.196;7.074;2023-03-26T09:52:17;97554.75;;;7.93;100.00
19576;BME280;41589;51.196;7.074;2023-03-26T10:15:02;97531.53;;;8.07;100.00
19576;BME280;41589;51.196;7.074;2023-03-26T10:25:58;97510.47;;;8.12;100.00
19576;BME280;41589;51.196;7.074;2023-03-26T10:42:14;97510.16;;;8.10;100.00
19576;BME280;41589;51.196;7.074;2023-03-26T10:58:35;97488.56;;;7.81;100.00
19576;BME280;41589;51.196;7.074;2023-03-26T11:03:49;97488.38;;;7.84;100.00
19576;BME280;41589;51.196;7.074;2023-03-26T11:14:22;97469.44;;;7.79;100.00
19576;BME280;41589;51.196;7.074;2023-03-26T11:19:38;97464.41;;;7.83;100.00
19576;BME280;41589;51.196;7.074;2023-03-26T11:25:18;97469.81;;;7.87;100.00
19576;BME280;41589;51.196;7.074;2023-03-26T11:30:36;97460.03;;;7.97;100.00
19576;BME280;41589;51.196;7.074;2023-03-26T11:35:44;97457.66;;;7.61;100.00
19576;BME280;41589;51.196;7.074;2023-03-26T11:40:49;97464.81;;;7.62;100.00
19576;BME280;41589;51.196;7.074;2023-03-26T11:46:09;97444.25;;;7.50;100.00
19576;BME280;41589;51.196;7.074;2023-03-26T11:51:17;97445.22;;;7.62;100.00
19576;BME280;41589;51.196;7.074;2023-03-26T11:56:29;97457.34;;;7.59;100.00
19576;BME280;41589;51.196;7.074;2023-03-26T12:01:42;97448.00;;;7.32;100.00
19576;BME280;41589;51.196;7.074;2023-03-26T12:06:55;97452.94;;;7.52;100.00
19576;BME280;41589;51.196;7.074;2023-03-26T12:12:02;97449.16;;;7.40;100.00
19576;BME280;41589;51.196;7.074;2023-03-26T12:17:07;97446.06;;;7.53;100.00
19576;BME280;41589;51.196;7.074;2023-03-26T12:22:36;97444.34;;;7.55;100.00
19576;BME280;41589;51.196;7.074;2023-03-26T12:27:42;97442.09;;;7.45;100.00
19576;BME280;41589;51.196;7.074;2023-03-26T12:32:43;97441.53;;;7.41;100.00
19576;BME280;41589;51.196;7.074;2023-03-26T12:37:46;97435.75;;;7.44;100.00
19576;BME280;41589;51.196;7.074;2023-03-26T12:42:51;97441.53;;;7.55;100.00
19576;BME280;41589;51.196;7.074;2023-03-26T12:47:57;97440.28;;;7.71;100.00
19576;BME280;41589;51.196;7.074;2023-03-26T12:58:41;97446.34;;;7.25;100.00
19576;BME280;41589;51.196;7.074;2023-03-26T13:14:41;97453.31;;;7.60;100.00
19576;BME280;41589;51.196;7.074;2023-03-26T13:20:00;97447.00;;;7.79;100.00
19576;BME280;41589;51.196;7.074;2023-03-26T13:36:02;97461.03;;;7.79;100.00
19576;BME280;41589;51.196;7.074;2023-03-26T13:46:54;97464.63;;;7.80;100.00
19576;BME280;41589;51.196;7.074;2023-03-26T13:52:06;97470.50;;;7.82;100.00
19576;BME280;41589;51.196;7.074;2023-03-26T13:57:23;97459.00;;;7.95;100.00
19576;BME280;41589;51.196;7.074;2023-03-26T14:02:43;97462.59;;;7.80;100.00
19576;BME280;41589;51.196;7.074;2023-03-26T14:07:53;97462.63;;;8.16;100.00
19576;BME280;41589;51.196;7.074;2023-03-26T14:13:25;97469.56;;;8.35;100.00
19576;BME280;41589;51.196;7.074;2023-03-26T14:18:43;97472.69;;;8.57;100.00
19576;BME280;41589;51.196;7.074;2023-03-26T14:56:44;97507.88;;;8.23;100.00
19576;BME280;41589;51.196;7.074;2023-03-26T15:01:59;97512.34;;;7.71;100.00
19576;BME280;41589;51.196;7.074;2023-03-26T15:12:32;97528.56;;;7.81;100.00
19576;BME280;41589;51.196;7.074;2023-03-26T15:18:06;97537.34;;;8.04;100.00
19576;BME280;41589;51.196;7.074;2023-03-26T15:44:40;97575.22;;;7.70;100.00
19576;BME280;41589;51.196;7.074;2023-03-26T15:49:54;97576.16;;;7.67;100.00
19576;BME280;41589;51.196;7.074;2023-03-26T16:00:27;97595.72;;;7.52;100.00
19576;BME280;41589;51.196;7.074;2023-03-26T16:15:55;97618.72;;;7.56;100.00
19576;BME280;41589;51.196;7.074;2023-03-26T16:26:34;97633.53;;;7.71;100.00
19576;BME280;41589;51.196;7.074;2023-03-26T16:37:05;97652.13;;;7.36;100.00
19576;BME280;41589;51.196;7.074;2023-03-26T16:42:37;97659.00;;;7.35;100.00
19576;BME280;41589;51.196;7.074;2023-03-26T16:58:28;97690.56;;;7.59;100.00
19576;BME280;41589;51.196;7.074;2023-03-26T17:03:40;97714.09;;;7.52;100.00
19576;BME280;41589;51.196;7.074;2023-03-26T17:09:14;97710.03;;;7.30;100.00
19576;BME280;41589;51.196;7.074;2023-03-26T17:14:59;97722.03;;;6.88;100.00
19576;BME280;41589;51.196;7.074;2023-03-26T17:26:02;97764.84;;;7.12;100.00
19576;BME280;41589;51.196;7.074;2023-03-26T17:31:37;97761.75;;;7.10;100.00
19576;BME280;41589;51.196;7.074;2023-03-26T17:36:43;97779.84;;;6.82;100.00
19576;BME280;41589;51.196;7.074;2023-03-26T17:42:24;97792.94;;;6.76;100.00
19576;BME280;41589;51.196;7.074;2023-03-26T17:47:37;97798.53;;;6.76;100.00
19576;BME280;41589;51.196;7.074;2023-03-26T17:53:37;97812.47;;;6.85;100.00
19576;BME280;41589;51.196;7.074;2023-03-26T18:04:39;97844.34;;;6.87;100.00
19576;BME280;41589;51.196;7.074;2023-03-26T18:10:10;97853.03;;;6.89;100.00
19576;BME280;41589;51.196;7.074;2023-03-26T18:20:59;97869.06;;;6.80;100.00
19576;BME280;41589;51.196;7.074;2023-03-26T18:26:38;97882.72;;;6.68;100.00
19576;BME280;41589;51.196;7.074;2023-03-26T18:37:28;97898.41;;;6.38;100.00
19576;BME280;41589;51.196;7.074;2023-03-26T18:42:42;97925.63;;;6.65;100.00
19576;BME280;41589;51.196;7.074;2023-03-26T18:47:46;97935.31;;;6.24;100.00
19576;BME280;41589;51.196;7.074;2023-03-26T18:52:49;97943.47;;;6.50;100.00
19576;BME280;41589;51.196;7.074;2023-03-26T18:57:50;97968.59;;;6.41;100.00
19576;BME280;41589;51.196;7.074;2023-03-26T19:03:00;97973.25;;;6.34;100.00
19576;BME280;41589;51.196;7.074;2023-03-26T19:08:04;97985.47;;;6.28;100.00
19576;BME280;41589;51.196;7.074;2023-03-26T19:13:11;97985.78;;;6.30;100.00
19576;BME280;41589;51.196;7.074;2023-03-26T19:18:17;97990.84;;;6.13;100.00
19576;BME280;41589;51.196;7.074;2023-03-26T19:23:20;98001.69;;;6.11;100.00
19576;BME280;41589;51.196;7.074;2023-03-26T19:28:30;98015.84;;;6.17;100.00
19576;BME280;41589;51.196;7.074;2023-03-26T19:33:34;98027.91;;;6.04;100.00
19576;BME280;41589;51.196;7.074;2023-03-26T19:38:41;98030.50;;;6.30;100.00
19576;BME280;41589;51.196;7.074;2023-03-26T19:43:47;98040.59;;;5.96;100.00
19576;BME280;41589;51.196;7.074;2023-03-26T19:48:50;98052.03;;;5.89;100.00
19576;BME280;41589;51.196;7.074;2023-03-26T19:53:54;98062.69;;;6.03;100.00
19576;BME280;41589;51.196;7.074;2023-03-26T19:58:55;98063.72;;;5.97;100.00
19576;BME280;41589;51.196;7.074;2023-03-26T20:03:59;98068.47;;;6.18;100.00
19576;BME280;41589;51.196;7.074;2023-03-26T20:09:00;98076.72;;;6.22;100.00
19576;BME280;41589;51.196;7.074;2023-03-26T20:14:01;98084.19;;;6.25;100.00
19576;BME280;41589;51.196;7.074;2023-03-26T20:19:01;98088.25;;;6.24;100.00
19576;BME280;41589;51.196;7.074;2023-03-26T20:24:14;98093.63;;;6.18;100.00
19576;BME280;41589;51.196;7.074;2023-03-26T20:29:15;98115.16;;;6.08;100.00
19576;BME280;41589;51.196;7.074;2023-03-26T20:34:19;98129.06;;;5.77;100.00
19576;BME280;41589;51.196;7.074;2023-03-26T20:39:22;98131.72;;;5.59;100.00
19576;BME280;41589;51.196;7.074;2023-03-26T20:44:22;98144.00;;;5.62;100.00
19576;BME280;41589;51.196;7.074;2023-03-26T20:49:25;98147.59;;;5.49;100.00
19576;BME280;41589;51.196;7.074;2023-03-26T20:54:28;98161.38;;;5.44;100.00
19576;BME280;41589;51.196;7.074;2023-03-26T20:59:29;98169.78;;;5.31;100.00
19576;BME280;41589;51.196;7.074;2023-03-26T21:04:29;98176.78;;;5.36;100.00
19576;BME280;41589;51.196;7.074;2023-03-26T21:09:31;98190.72;;;5.48;100.00
19576;BME280;41589;51.196;7.074;2023-03-26T21:14:35;98199.53;;;5.00;100.00
19576;BME280;41589;51.196;7.074;2023-03-26T21:19:40;98216.69;;;4.85;100.00
19576;BME280;41589;51.196;7.074;2023-03-26T21:29:57;98242.56;;;4.73;100.00
19576;BME280;41589;51.196;7.074;2023-03-26T21:34:59;98257.03;;;4.55;100.00
19576;BME280;41589;51.196;7.074;2023-03-26T21:39:59;98269.06;;;4.52;100.00
19576;BME280;41589;51.196;7.074;2023-03-26T21:45:10;98275.53;;;4.49;100.00
19576;BME280;41589;51.196;7.074;2023-03-26T21:50:16;98288.50;;;4.27;100.00
19576;BME280;41589;51.196;7.074;2023-03-26T21:55:19;98307.38;;;4.06;97.95
19576;BME280;41589;51.196;7.074;2023-03-26T22:00:21;98306.38;;;4.13;100.00
19576;BME280;41589;51.196;7.074;2023-03-26T22:06:12;98309.53;;;4.15;100.00
19576;BME280;41589;51.196;7.074;2023-03-26T22:11:11;98318.78;;;3.96;100.00
19576;BME280;41589;51.196;7.074;2023-03-26T22:16:12;98339.13;;;4.09;100.00
19576;BME280;41589;51.196;7.074;2023-03-26T22:21:12;98351.66;;;4.17;100.00
19576;BME280;41589;51.196;7.074;2023-03-26T22:26:13;98375.84;;;4.20;100.00
19576;BME280;41589;51.196;7.074;2023-03-26T22:31:14;98379.16;;;3.99;100.00
19576;BME280;41589;51.196;7.074;2023-03-26T22:36:14;98402.66;;;3.98;100.00
19576;BME280;41589;51.196;7.074;2023-03-26T22:41:15;98402.41;;;3.92;100.00
19576;BME280;41589;51.196;7.074;2023-03-26T22:46:15;98415.50;;;3.75;100.00
19576;BME280;41589;51.196;7.074;2023-03-26T22:51:16;98426.13;;;3.64;100.00
19576;BME280;41589;51.196;7.074;2023-03-26T22:56:17;98437.50;;;3.70;100.00
19576;BME280;41589;51.196;7.074;2023-03-26T23:01:21;98459.16;;;3.62;100.00
19576;BME280;41589;51.196;7.074;2023-03-26T23:06:21;98452.63;;;3.53;100.00
19576;BME280;41589;51.196;7.074;2023-03-26T23:11:22;98461.81;;;3.49;100.00
19576;BME280;41589;51.196;7.074;2023-03-26T23:16:22;98471.38;;;3.48;100.00
19576;BME280;41589;51.196;7.074;2023-03-26T23:21:22;98484.94;;;3.46;100.00
19576;BME280;41589;51.196;7.074;2023-03-26T23:26:23;98505.22;;;3.47;100.00
19576;BME280;41589;51.196;7.074;2023-03-26T23:31:24;98516.47;;;3.40;100.00
19576;BME280;41589;51.196;7.074;2023-03-26T23:36:24;98525.56;;;3.44;100.00
19576;BME280;41589;51.196;7.074;2023-03-26T23:41:25;98529.00;;;3.32;100.00
19576;BME280;41589;51.196;7.074;2023-03-26T23:46:27;98536.94;;;3.30;100.00
19576;BME280;41589;51.196;7.074;2023-03-26T23:51:33;98554.28;;;3.37;100.00
19576;BME280;41589;51.196;7.074;2023-03-26T23:56:35;98567.78;;;3.39;100.00
